Time;durP1;ratioP1;P1;durP2;ratioP2;P2;SDS_P1;SDS_P2;PMS_P1;PMS_P2;Temp;Humidity;BMP_temperature;BMP_pressure;BME280_temperature;BME280_humidity;BME280_pressure;Samples;Min_cycle;Max_cycle;Signal;HPM_P1;HPM_P2
2020/12/31 00:00:51;;;;;;;0.20;0.20;;;;;;;;;;10165264;29;20138;-65
2020/12/31 00:05:54;;;;;;;0.50;0.50;;;;;;;;;;10165334;29;20044;-65
2020/12/31 00:10:55;;;;;;;0.30;0.30;;;;;;;;;;10167759;29;20044;-65
2020/12/31 00:15:57;;;;;;;0.45;0.45;;;;;;;;;;10166774;29;20040;-65
2020/12/31 00:20:59;;;;;;;0.20;0.20;;;;;;;;;;10166470;29;20135;-64
2020/12/31 00:26:01;;;;;;;0.90;0.90;;;;;;;;;;10165800;29;20044;-64
2020/12/31 00:31:03;;;;;;;0.28;0.28;;;;;;;;;;10168304;29;20089;-64
2020/12/31 00:36:05;;;;;;;0.30;0.30;;;;;;;;;;10163179;29;20064;-64
2020/12/31 00:41:08;;;;;;;0.30;0.30;;;;;;;;;;10165554;29;20143;-64
2020/12/31 00:46:10;;;;;;;0.30;0.30;;;;;;;;;;10166602;29;20572;-64
2020/12/31 00:51:12;;;;;;;0.20;0.20;;;;;;;;;;10167902;29;20100;-63
2020/12/31 00:56:14;;;;;;;0.30;0.30;;;;;;;;;;10165344;29;20136;-64
2020/12/31 01:01:16;;;;;;;0.30;0.30;;;;;;;;;;10165406;29;20472;-64
2020/12/31 01:06:18;;;;;;;0.30;0.30;;;;;;;;;;10168829;29;20058;-64
2020/12/31 01:11:20;;;;;;;0.33;0.33;;;;;;;;;;10169734;29;20051;-65
2020/12/31 01:16:22;;;;;;;0.28;0.28;;;;;;;;;;10172285;29;20102;-65
2020/12/31 01:21:24;;;;;;;0.30;0.30;;;;;;;;;;10174022;29;20139;-65
2020/12/31 01:26:33;;;;;;;0.30;0.30;;;;;;;;;;10172948;29;20048;-65
2020/12/31 01:31:34;;;;;;;0.30;0.30;;;;;;;;;;10173043;29;20135;-65
2020/12/31 01:36:37;;;;;;;0.20;0.20;;;;;;;;;;10173869;29;20082;-66
2020/12/31 01:41:38;;;;;;;0.33;0.33;;;;;;;;;;10172446;29;20140;-66
2020/12/31 01:46:41;;;;;;;0.30;0.30;;;;;;;;;;10170624;29;20106;-66
2020/12/31 01:51:46;;;;;;;0.20;0.20;;;;;;;;;;10172275;29;20143;-65
2020/12/31 01:56:49;;;;;;;0.30;0.30;;;;;;;;;;10170694;29;20127;-66
2020/12/31 02:01:51;;;;;;;0.30;0.30;;;;;;;;;;10171516;29;20080;-66
2020/12/31 02:06:55;;;;;;;0.30;0.30;;;;;;;;;;10165221;29;20048;-65
2020/12/31 02:11:56;;;;;;;0.22;0.22;;;;;;;;;;10170802;29;20139;-66
2020/12/31 02:16:58;;;;;;;0.20;0.20;;;;;;;;;;10169843;29;20154;-65
2020/12/31 02:22:01;;;;;;;0.30;0.30;;;;;;;;;;10171876;29;20058;-66
2020/12/31 02:27:03;;;;;;;0.40;0.40;;;;;;;;;;10170456;29;20044;-66
2020/12/31 02:32:04;;;;;;;0.25;0.25;;;;;;;;;;10170744;29;20062;-66
2020/12/31 02:37:07;;;;;;;0.38;0.38;;;;;;;;;;10169790;29;20475;-66
2020/12/31 02:42:08;;;;;;;0.90;0.90;;;;;;;;;;10170106;29;20051;-66
2020/12/31 02:47:10;;;;;;;0.30;0.30;;;;;;;;;;10168463;29;20044;-67
2020/12/31 02:52:13;;;;;;;0.25;0.25;;;;;;;;;;10169888;29;20147;-66
2020/12/31 02:57:15;;;;;;;0.37;0.37;;;;;;;;;;10172229;29;20131;-66
2020/12/31 03:02:16;;;;;;;0.40;0.40;;;;;;;;;;10167035;29;20148;-66
2020/12/31 03:07:19;;;;;;;0.30;0.30;;;;;;;;;;10168311;29;20075;-66
2020/12/31 03:12:21;;;;;;;0.40;0.40;;;;;;;;;;10168309;29;20146;-66
2020/12/31 03:17:22;;;;;;;0.40;0.40;;;;;;;;;;10169503;29;20052;-66
2020/12/31 03:22:25;;;;;;;0.30;0.30;;;;;;;;;;10168018;29;20048;-67
2020/12/31 03:27:27;;;;;;;0.20;0.20;;;;;;;;;;10168246;29;20145;-66
2020/12/31 03:32:28;;;;;;;0.30;0.30;;;;;;;;;;10167600;29;20064;-66
2020/12/31 03:37:31;;;;;;;0.30;0.30;;;;;;;;;;10167197;29;20563;-67
2020/12/31 03:42:33;;;;;;;0.27;0.27;;;;;;;;;;10168450;29;20147;-67
2020/12/31 03:47:34;;;;;;;0.20;0.20;;;;;;;;;;10169534;29;20150;-66
2020/12/31 03:52:37;;;;;;;1.15;1.10;;;;;;;;;;10168752;29;20138;-66
2020/12/31 03:57:39;;;;;;;0.40;0.40;;;;;;;;;;10167261;29;20052;-66
2020/12/31 04:02:41;;;;;;;0.98;0.98;;;;;;;;;;10167681;29;20059;-68
2020/12/31 04:07:43;;;;;;;0.20;0.20;;;;;;;;;;10165971;29;20121;-67
2020/12/31 04:12:45;;;;;;;0.60;0.60;;;;;;;;;;10165678;29;20103;-66
2020/12/31 04:17:47;;;;;;;0.20;0.20;;;;;;;;;;10167135;29;20044;-66
2020/12/31 04:22:49;;;;;;;0.65;0.65;;;;;;;;;;10168023;29;20480;-66
2020/12/31 04:27:51;;;;;;;0.20;0.20;;;;;;;;;;10168460;29;20048;-66
2020/12/31 04:32:53;;;;;;;0.40;0.40;;;;;;;;;;10166112;29;20060;-67
2020/12/31 04:37:55;;;;;;;0.32;0.32;;;;;;;;;;10170021;29;20070;-66
2020/12/31 04:42:57;;;;;;;0.30;0.30;;;;;;;;;;10175507;29;20052;-66
2020/12/31 04:48:07;;;;;;;0.50;0.50;;;;;;;;;;10175267;29;20135;-66
2020/12/31 04:53:10;;;;;;;1.20;1.10;;;;;;;;;;10175437;29;20077;-67
2020/12/31 04:58:12;;;;;;;7.03;1.10;;;;;;;;;;10174437;29;20147;-67
2020/12/31 05:03:14;;;;;;;0.30;0.30;;;;;;;;;;10173686;29;20107;-66
2020/12/31 05:08:17;;;;;;;0.30;0.30;;;;;;;;;;10172819;29;20153;-66
2020/12/31 05:13:19;;;;;;;;;;;;;;;;;;10174066;29;20560;-67
2020/12/31 05:18:21;;;;;;;0.25;0.25;;;;;;;;;;10173028;29;20033;-66
2020/12/31 05:23:24;;;;;;;0.30;0.30;;;;;;;;;;10173773;29;20143;-66
2020/12/31 05:28:27;;;;;;;0.30;0.30;;;;;;;;;;10172479;29;20048;-66
2020/12/31 05:33:30;;;;;;;0.30;0.30;;;;;;;;;;10171682;29;20102;-65
2020/12/31 05:38:32;;;;;;;0.50;0.50;;;;;;;;;;10171296;29;20147;-66
2020/12/31 05:43:34;;;;;;;0.20;0.20;;;;;;;;;;10172039;29;20079;-66
2020/12/31 05:48:36;;;;;;;0.57;0.57;;;;;;;;;;10171744;29;20575;-67
2020/12/31 05:53:39;;;;;;;0.52;0.52;;;;;;;;;;10172596;29;20055;-66
2020/12/31 05:58:45;;;;;;;0.57;0.57;;;;;;;;;;10172156;29;20058;-66
2020/12/31 06:03:47;;;;;;;0.30;0.30;;;;;;;;;;10167733;29;20055;-65
2020/12/31 06:08:57;;;;;;;1.90;1.80;;;;;;;;;;10168342;29;20127;-65
2020/12/31 06:13:59;;;;;;;0.20;0.20;;;;;;;;;;10171412;29;20048;-65
2020/12/31 06:19:02;;;;;;;0.25;0.25;;;;;;;;;;10170360;29;20411;-65
2020/12/31 06:24:09;;;;;;;0.45;0.45;;;;;;;;;;10169925;29;20056;-66
2020/12/31 06:29:11;;;;;;;0.47;0.47;;;;;;;;;;10169683;29;20071;-66
2020/12/31 06:34:12;;;;;;;0.20;0.20;;;;;;;;;;10168937;29;20496;-66
2020/12/31 06:39:22;;;;;;;0.20;0.20;;;;;;;;;;10168940;29;20044;-66
2020/12/31 06:44:29;;;;;;;0.70;0.70;;;;;;;;;;10167683;29;20408;-66
2020/12/31 06:50:01;;;;;;;0.30;0.30;;;;;;;;;;10169085;29;20147;-65
2020/12/31 06:55:23;;;;;;;0.65;0.65;;;;;;;;;;10072496;29;20048;-65
2020/12/31 07:00:29;;;;;;;0.43;0.43;;;;;;;;;;10168589;29;21593;-65
2020/12/31 07:05:31;;;;;;;0.20;0.20;;;;;;;;;;10167210;29;20103;-65
2020/12/31 07:10:44;;;;;;;0.30;0.30;;;;;;;;;;10168739;29;20066;-66
2020/12/31 07:15:46;;;;;;;0.30;0.30;;;;;;;;;;10168448;29;20056;-66
2020/12/31 07:20:48;;;;;;;0.30;0.30;;;;;;;;;;10167988;29;20048;-66
2020/12/31 07:25:50;;;;;;;0.40;0.40;;;;;;;;;;10166501;29;20430;-65
2020/12/31 07:30:53;;;;;;;0.47;0.47;;;;;;;;;;10166507;29;20052;-65
2020/12/31 07:35:54;;;;;;;0.50;0.50;;;;;;;;;;10166473;29;20130;-66
2020/12/31 07:40:57;;;;;;;0.40;0.40;;;;;;;;;;10165931;29;20044;-65
2020/12/31 07:46:00;;;;;;;0.40;0.40;;;;;;;;;;10165599;29;20507;-65
2020/12/31 07:51:02;;;;;;;0.30;0.30;;;;;;;;;;10166875;29;20052;-65
2020/12/31 07:56:07;;;;;;;1.03;0.80;;;;;;;;;;10166035;29;20505;-65
2020/12/31 08:01:09;;;;;;;0.60;0.60;;;;;;;;;;10166144;29;20050;-65
2020/12/31 08:06:11;;;;;;;0.30;0.30;;;;;;;;;;10166322;29;20149;-65
2020/12/31 08:11:14;;;;;;;2.40;2.30;;;;;;;;;;10166380;29;20540;-65
2020/12/31 08:16:15;;;;;;;0.33;0.33;;;;;;;;;;10165230;29;20386;-66
2020/12/31 08:21:17;;;;;;;0.70;0.70;;;;;;;;;;10166869;29;21029;-66
2020/12/31 08:26:20;;;;;;;0.37;0.37;;;;;;;;;;10165924;29;20519;-67
2020/12/31 08:31:24;;;;;;;0.75;0.75;;;;;;;;;;10164739;29;20056;-66
2020/12/31 08:36:26;;;;;;;0.53;0.53;;;;;;;;;;10166181;29;20063;-66
2020/12/31 08:41:29;;;;;;;0.20;0.20;;;;;;;;;;10165007;29;20203;-66
2020/12/31 08:46:30;;;;;;;0.40;0.40;;;;;;;;;;10166982;29;20132;-67
2020/12/31 08:51:32;;;;;;;5.80;2.67;;;;;;;;;;10166381;29;20163;-66
2020/12/31 08:56:35;;;;;;;0.20;0.20;;;;;;;;;;10167570;29;20143;-66
2020/12/31 09:01:37;;;;;;;0.30;0.30;;;;;;;;;;10166734;29;20072;-66
2020/12/31 09:06:42;;;;;;;0.30;0.30;;;;;;;;;;10167030;29;20072;-66
2020/12/31 09:11:55;;;;;;;0.38;0.38;;;;;;;;;;10165981;29;20056;-66
2020/12/31 09:16:56;;;;;;;0.63;0.63;;;;;;;;;;10167344;29;20081;-66
2020/12/31 09:21:58;;;;;;;0.22;0.22;;;;;;;;;;10165729;29;20143;-66
2020/12/31 09:27:01;;;;;;;0.40;0.40;;;;;;;;;;10171228;29;20144;-66
2020/12/31 09:32:03;;;;;;;0.30;0.30;;;;;;;;;;10172897;29;20056;-66
2020/12/31 09:37:04;;;;;;;0.77;0.77;;;;;;;;;;10172263;29;20166;-66
2020/12/31 09:42:07;;;;;;;0.35;0.35;;;;;;;;;;10172626;29;20426;-65
2020/12/31 09:47:09;;;;;;;0.33;0.33;;;;;;;;;;10171119;29;20092;-65
2020/12/31 09:52:10;;;;;;;0.30;0.30;;;;;;;;;;10169757;29;20288;-65
2020/12/31 09:57:13;;;;;;;0.40;0.40;;;;;;;;;;10171504;29;20044;-66
2020/12/31 10:02:15;;;;;;;0.30;0.30;;;;;;;;;;10170667;29;20107;-66
2020/12/31 10:07:17;;;;;;;4.22;1.73;;;;;;;;;;10169370;29;20132;-66
2020/12/31 10:12:19;;;;;;;0.60;0.60;;;;;;;;;;10173314;29;20059;-67
2020/12/31 10:17:21;;;;;;;0.30;0.30;;;;;;;;;;10170303;29;20471;-67
2020/12/31 10:22:22;;;;;;;0.47;0.47;;;;;;;;;;10170930;29;20131;-66
2020/12/31 10:27:25;;;;;;;0.30;0.30;;;;;;;;;;10171534;29;20089;-65
2020/12/31 10:32:27;;;;;;;0.30;0.30;;;;;;;;;;10169981;29;20155;-66
2020/12/31 10:37:28;;;;;;;0.50;0.50;;;;;;;;;;10170559;29;21067;-66
2020/12/31 10:42:31;;;;;;;0.95;0.95;;;;;;;;;;10171500;29;20126;-66
2020/12/31 10:47:33;;;;;;;0.20;0.20;;;;;;;;;;10169067;29;20555;-66
2020/12/31 10:52:34;;;;;;;0.10;0.10;;;;;;;;;;10173133;29;20552;-66
2020/12/31 10:57:37;;;;;;;0.20;0.20;;;;;;;;;;10172547;29;20143;-66
2020/12/31 11:02:39;;;;;;;0.38;0.38;;;;;;;;;;10170083;29;20567;-66
2020/12/31 11:07:40;;;;;;;0.10;0.10;;;;;;;;;;10168796;29;20484;-66
2020/12/31 11:12:44;;;;;;;0.20;0.20;;;;;;;;;;10171138;29;20139;-66
2020/12/31 11:17:46;;;;;;;0.10;0.10;;;;;;;;;;10168826;29;20909;-66
2020/12/31 11:22:49;;;;;;;0.13;0.13;;;;;;;;;;10168936;29;20044;-67
2020/12/31 11:27:51;;;;;;;0.17;0.13;;;;;;;;;;10169887;29;20075;-66
2020/12/31 11:32:53;;;;;;;0.30;0.30;;;;;;;;;;10168145;29;20068;-67
2020/12/31 11:37:55;;;;;;;2.25;0.85;;;;;;;;;;10169199;29;20052;-67
2020/12/31 11:42:57;;;;;;;0.25;0.25;;;;;;;;;;10165079;29;20099;-66
2020/12/31 11:47:59;;;;;;;;;;;;;;;;;;10166637;29;20135;-66
2020/12/31 11:53:00;;;;;;;2.20;1.08;;;;;;;;;;10169250;29;20521;-67
2020/12/31 11:58:03;;;;;;;0.10;0.10;;;;;;;;;;10171401;29;20143;-67
2020/12/31 12:03:06;;;;;;;;;;;;;;;;;;10154590;29;20063;-66
2020/12/31 12:08:07;;;;;;;0.20;0.20;;;;;;;;;;10166697;29;19932;-68
2020/12/31 12:13:10;;;;;;;0.35;0.35;;;;;;;;;;10165705;29;20056;-68
2020/12/31 12:18:12;;;;;;;;;;;;;;;;;;10165421;29;20058;-68
2020/12/31 12:23:15;;;;;;;0.10;0.10;;;;;;;;;;10164669;29;19927;-69
2020/12/31 12:28:17;;;;;;;0.93;0.65;;;;;;;;;;10165797;29;20071;-69
2020/12/31 12:33:19;;;;;;;0.30;0.30;;;;;;;;;;10164029;29;20091;-69
2020/12/31 12:38:21;;;;;;;0.10;0.10;;;;;;;;;;10165484;29;20056;-69
2020/12/31 12:43:23;;;;;;;0.10;0.10;;;;;;;;;;10163382;29;20087;-68
2020/12/31 12:48:25;;;;;;;0.32;0.32;;;;;;;;;;10165009;29;20066;-69
2020/12/31 12:53:27;;;;;;;0.10;0.10;;;;;;;;;;10161383;29;20044;-69
2020/12/31 12:58:29;;;;;;;0.47;0.47;;;;;;;;;;10165869;29;20064;-69
2020/12/31 13:03:31;;;;;;;0.10;0.10;;;;;;;;;;10171728;29;20142;-69
2020/12/31 13:08:32;;;;;;;0.10;0.10;;;;;;;;;;10172705;29;20055;-69
2020/12/31 13:13:37;;;;;;;0.25;0.25;;;;;;;;;;10171178;29;20066;-69
2020/12/31 13:18:39;;;;;;;0.50;0.50;;;;;;;;;;10173184;29;20127;-68
2020/12/31 13:23:41;;;;;;;0.30;0.30;;;;;;;;;;10170387;29;20048;-68
2020/12/31 13:28:43;;;;;;;5.60;1.38;;;;;;;;;;10172657;29;20456;-68
2020/12/31 13:33:49;;;;;;;0.47;0.45;;;;;;;;;;10170687;29;20159;-68
2020/12/31 13:38:51;;;;;;;0.10;0.10;;;;;;;;;;10170475;29;20044;-68
2020/12/31 13:43:53;;;;;;;0.25;0.25;;;;;;;;;;10170955;29;20052;-68
2020/12/31 13:48:55;;;;;;;0.15;0.15;;;;;;;;;;10170288;29;22194;-68
2020/12/31 13:53:57;;;;;;;0.10;0.10;;;;;;;;;;10170679;29;20059;-68
2020/12/31 13:58:59;;;;;;;0.30;0.30;;;;;;;;;;10168097;29;20044;-68
2020/12/31 14:04:05;;;;;;;0.47;0.47;;;;;;;;;;10171015;29;20636;-68
2020/12/31 14:09:07;;;;;;;0.20;0.20;;;;;;;;;;10170676;29;20079;-68
2020/12/31 14:14:10;;;;;;;0.15;0.15;;;;;;;;;;10167880;29;20540;-68
2020/12/31 14:19:12;;;;;;;0.30;0.30;;;;;;;;;;10165267;29;20052;-68
2020/12/31 14:24:13;;;;;;;0.20;0.20;;;;;;;;;;10168895;29;20151;-67
2020/12/31 14:29:16;;;;;;;0.20;0.20;;;;;;;;;;10169966;29;20138;-67
2020/12/31 14:34:18;;;;;;;0.20;0.20;;;;;;;;;;10168522;29;20067;-67
2020/12/31 14:39:19;;;;;;;0.20;0.20;;;;;;;;;;10167751;29;20060;-67
2020/12/31 14:44:22;;;;;;;0.30;0.30;;;;;;;;;;10166043;29;20392;-68
2020/12/31 14:49:24;;;;;;;0.25;0.25;;;;;;;;;;10169354;29;20052;-67
2020/12/31 14:54:26;;;;;;;0.20;0.20;;;;;;;;;;10168583;29;20139;-68
2020/12/31 14:59:28;;;;;;;0.30;0.30;;;;;;;;;;10168769;29;20180;-67
2020/12/31 15:04:30;;;;;;;0.20;0.20;;;;;;;;;;10170674;29;20139;-68
2020/12/31 15:09:32;;;;;;;0.65;0.65;;;;;;;;;;10167587;29;20146;-68
2020/12/31 15:14:34;;;;;;;0.70;0.70;;;;;;;;;;10169339;29;20081;-67
2020/12/31 15:19:36;;;;;;;0.30;0.30;;;;;;;;;;10169788;29;20107;-68
2020/12/31 15:24:38;;;;;;;0.28;0.28;;;;;;;;;;10170066;29;20103;-68
2020/12/31 15:29:40;;;;;;;1.98;1.88;;;;;;;;;;10169061;29;20100;-68
2020/12/31 15:34:42;;;;;;;2.03;1.93;;;;;;;;;;10168273;29;20155;-68
2020/12/31 15:39:44;;;;;;;0.55;0.55;;;;;;;;;;10168148;29;20155;-67
2020/12/31 15:44:47;;;;;;;0.40;0.40;;;;;;;;;;10165725;29;20048;-67
2020/12/31 15:49:48;;;;;;;1.07;1.07;;;;;;;;;;10166637;29;20901;-68
2020/12/31 15:54:50;;;;;;;3.22;3.03;;;;;;;;;;10166815;29;20481;-68
2020/12/31 15:59:53;;;;;;;7.57;4.43;;;;;;;;;;10168302;29;20083;-68
2020/12/31 16:04:54;;;;;;;1.63;1.60;;;;;;;;;;10165910;29;20071;-68
2020/12/31 16:09:56;;;;;;;1.25;1.15;;;;;;;;;;10166019;29;20566;-68
2020/12/31 16:14:59;;;;;;;0.80;0.80;;;;;;;;;;10163402;29;20072;-68
2020/12/31 16:20:00;;;;;;;0.50;0.50;;;;;;;;;;10169275;29;20191;-68
2020/12/31 16:25:02;;;;;;;1.63;1.35;;;;;;;;;;10167264;29;20135;-68
2020/12/31 16:30:06;;;;;;;4.43;3.50;;;;;;;;;;10166487;29;20080;-70
2020/12/31 16:35:09;;;;;;;2.25;2.15;;;;;;;;;;10171450;29;20142;-69
2020/12/31 16:40:11;;;;;;;1.17;1.17;;;;;;;;;;10175628;29;20499;-70
2020/12/31 16:45:14;;;;;;;0.52;0.52;;;;;;;;;;10174297;29;20083;-69
2020/12/31 16:50:15;;;;;;;1.83;1.73;;;;;;;;;;10173396;29;20476;-69
2020/12/31 16:55:17;;;;;;;1.90;1.80;;;;;;;;;;10174617;29;20131;-69
2020/12/31 17:00:20;;;;;;;1.00;1.00;;;;;;;;;;10172558;29;20063;-68
2020/12/31 17:05:22;;;;;;;3.53;1.95;;;;;;;;;;10174256;29;20056;-69
2020/12/31 17:10:23;;;;;;;1.08;1.08;;;;;;;;;;10171931;29;20106;-69
2020/12/31 17:15:26;;;;;;;1.63;1.55;;;;;;;;;;10172935;29;20048;-69
2020/12/31 17:20:28;;;;;;;2.93;2.73;;;;;;;;;;10175957;29;20091;-68
2020/12/31 17:25:29;;;;;;;1.13;1.13;;;;;;;;;;10174605;29;20052;-69
2020/12/31 17:30:32;;;;;;;1.87;1.77;;;;;;;;;;10172934;29;20416;-68
2020/12/31 17:35:34;;;;;;;0.50;0.50;;;;;;;;;;10172018;29;20151;-68
2020/12/31 17:40:35;;;;;;;4.00;3.67;;;;;;;;;;10171672;29;20135;-67
2020/12/31 17:45:38;;;;;;;2.77;2.30;;;;;;;;;;10169966;29;20059;-67
2020/12/31 17:50:40;;;;;;;2.10;2.00;;;;;;;;;;10171250;29;20138;-67
2020/12/31 17:55:41;;;;;;;0.80;0.80;;;;;;;;;;10173369;29;20135;-67
2020/12/31 18:00:44;;;;;;;2.27;2.17;;;;;;;;;;10173240;29;20142;-68
2020/12/31 18:05:50;;;;;;;2.63;2.03;;;;;;;;;;10172610;29;20082;-68
2020/12/31 18:10:52;;;;;;;1.47;1.47;;;;;;;;;;10169767;29;20059;-68
2020/12/31 18:15:55;;;;;;;1.88;1.77;;;;;;;;;;10171165;29;20052;-69
2020/12/31 18:20:57;;;;;;;2.55;2.35;;;;;;;;;;10169835;29;20879;-68
2020/12/31 18:25:58;;;;;;;3.17;2.97;;;;;;;;;;10172015;29;20138;-69
2020/12/31 18:31:01;;;;;;;5.40;4.72;;;;;;;;;;10170050;29;20086;-69
2020/12/31 18:36:03;;;;;;;3.60;2.08;;;;;;;;;;10168487;29;20139;-67
2020/12/31 18:41:04;;;;;;;0.77;0.77;;;;;;;;;;10171660;29;20048;-69
2020/12/31 18:46:07;;;;;;;0.85;0.85;;;;;;;;;;10171618;29;20047;-67
2020/12/31 18:51:09;;;;;;;1.23;1.23;;;;;;;;;;10169459;29;20052;-67
2020/12/31 18:56:10;;;;;;;0.80;0.80;;;;;;;;;;10168933;29;20048;-67
2020/12/31 19:01:13;;;;;;;1.40;1.40;;;;;;;;;;10170507;29;20048;-66
2020/12/31 19:06:15;;;;;;;0.90;0.90;;;;;;;;;;10165286;29;20445;-65
2020/12/31 19:11:17;;;;;;;13.13;2.57;;;;;;;;;;10171016;29;20502;-65
2020/12/31 19:16:20;;;;;;;4.00;2.30;;;;;;;;;;10169298;29;20150;-64
2020/12/31 19:21:21;;;;;;;3.70;2.17;;;;;;;;;;10167339;29;20048;-64
2020/12/31 19:26:23;;;;;;;4.82;3.88;;;;;;;;;;10168517;29;20147;-66
2020/12/31 19:31:26;;;;;;;2.55;0.75;;;;;;;;;;10167435;29;20147;-67
2020/12/31 19:36:27;;;;;;;3.17;2.90;;;;;;;;;;10168140;29;20357;-65
2020/12/31 19:41:29;;;;;;;5.10;4.68;;;;;;;;;;10169088;29;20052;-66
2020/12/31 19:46:32;;;;;;;6.63;5.90;;;;;;;;;;10167562;29;20105;-65
2020/12/31 19:51:34;;;;;;;1.30;1.30;;;;;;;;;;10165748;29;20056;-65
2020/12/31 19:56:36;;;;;;;1.75;0.90;;;;;;;;;;10168420;29;20055;-65
2020/12/31 20:01:38;;;;;;;2.22;2.13;;;;;;;;;;10169402;29;20099;-66
2020/12/31 20:06:40;;;;;;;2.07;1.87;;;;;;;;;;10167212;29;20198;-65
2020/12/31 20:11:42;;;;;;;0.47;0.47;;;;;;;;;;10169423;29;20147;-65
2020/12/31 20:16:48;;;;;;;0.45;0.45;;;;;;;;;;10169423;29;20079;-66
2020/12/31 20:21:50;;;;;;;1.73;1.63;;;;;;;;;;10165491;29;20060;-66
2020/12/31 20:26:53;;;;;;;0.40;0.40;;;;;;;;;;10167809;29;20048;-66
2020/12/31 20:32:00;;;;;;;0.40;0.40;;;;;;;;;;10167546;29;20094;-66
2020/12/31 20:37:05;;;;;;;0.57;0.57;;;;;;;;;;10166957;29;20107;-67
2020/12/31 20:42:08;;;;;;;0.60;0.60;;;;;;;;;;10167422;29;20044;-67
2020/12/31 20:47:11;;;;;;;2.05;1.95;;;;;;;;;;10167175;29;20499;-67
2020/12/31 20:52:13;;;;;;;0.93;0.93;;;;;;;;;;10165900;29;20548;-67
2020/12/31 20:57:14;;;;;;;1.52;1.48;;;;;;;;;;10168014;29;20127;-68
2020/12/31 21:02:17;;;;;;;0.90;0.90;;;;;;;;;;10167942;29;20633;-68
2020/12/31 21:07:19;;;;;;;0.30;0.30;;;;;;;;;;10166519;29;20112;-67
2020/12/31 21:12:21;;;;;;;2.40;2.20;;;;;;;;;;10167961;29;20052;-67
2020/12/31 21:17:26;;;;;;;4.90;4.27;;;;;;;;;;10166508;29;20131;-67
2020/12/31 21:22:27;;;;;;;16.70;9.40;;;;;;;;;;10170223;29;20055;-68
2020/12/31 21:27:29;;;;;;;9.53;8.47;;;;;;;;;;10171673;29;20131;-68
2020/12/31 21:32:32;;;;;;;10.60;7.40;;;;;;;;;;10173009;29;20068;-68
2020/12/31 21:37:34;;;;;;;7.93;6.40;;;;;;;;;;10173196;29;20059;-67
2020/12/31 21:42:35;;;;;;;12.50;9.90;;;;;;;;;;10171836;29;20064;-68
2020/12/31 21:47:38;;;;;;;14.00;6.80;;;;;;;;;;10173760;29;20112;-67
2020/12/31 21:52:40;;;;;;;2.65;2.55;;;;;;;;;;10171153;29;20043;-67
2020/12/31 21:57:42;;;;;;;12.37;11.27;;;;;;;;;;10174330;29;20044;-68
2020/12/31 22:02:45;;;;;;;10.03;9.10;;;;;;;;;;10172585;29;20052;-68
2020/12/31 22:07:47;;;;;;;5.73;5.27;;;;;;;;;;10171946;29;20048;-68
2020/12/31 22:12:49;;;;;;;10.53;9.57;;;;;;;;;;10170515;29;20591;-68
2020/12/31 22:17:51;;;;;;;4.93;4.53;;;;;;;;;;10172021;29;20564;-69
2020/12/31 22:22:53;;;;;;;8.23;7.22;;;;;;;;;;10169151;29;20044;-68
2020/12/31 22:27:55;;;;;;;2.67;2.57;;;;;;;;;;10171279;29;20135;-68
2020/12/31 22:32:57;;;;;;;10.57;7.80;;;;;;;;;;10167542;29;20569;-69
2020/12/31 22:37:59;;;;;;;3.97;3.72;;;;;;;;;;10171207;29;20104;-68
2020/12/31 22:43:02;;;;;;;0.87;0.87;;;;;;;;;;10166468;29;20563;-68
2020/12/31 22:48:06;;;;;;;7.25;6.47;;;;;;;;;;10153095;29;20107;-69
2020/12/31 22:53:07;;;;;;;6.43;5.83;;;;;;;;;;10169168;29;20501;-68
2020/12/31 22:58:09;;;;;;;3.70;3.43;;;;;;;;;;10168194;29;20087;-68
2020/12/31 23:03:12;;;;;;;8.13;5.93;;;;;;;;;;10170217;29;20048;-68
2020/12/31 23:08:14;;;;;;;4.38;4.07;;;;;;;;;;10165333;29;20142;-67
2020/12/31 23:13:15;;;;;;;14.33;12.90;;;;;;;;;;10166000;29;20142;-68
2020/12/31 23:18:18;;;;;;;16.60;15.17;;;;;;;;;;10164705;29;20147;-68
2020/12/31 23:23:20;;;;;;;8.57;6.47;;;;;;;;;;10167381;29;20501;-68
2020/12/31 23:28:22;;;;;;;6.00;4.53;;;;;;;;;;10167408;29;20052;-69
2020/12/31 23:33:25;;;;;;;2.17;2.07;;;;;;;;;;10166029;29;20067;-68
2020/12/31 23:38:27;;;;;;;1.00;1.00;;;;;;;;;;10165544;29;20504;-69
2020/12/31 23:43:28;;;;;;;1.97;1.87;;;;;;;;;;10163794;29;20079;-68
2020/12/31 23:48:31;;;;;;;2.80;2.70;;;;;;;;;;10165359;29;20056;-68
2020/12/31 23:53:33;;;;;;;4.80;4.43;;;;;;;;;;10164858;29;20552;-68
2020/12/31 23:58:34;;;;;;;3.13;2.80;;;;;;;;;;10166091;29;20056;-68
